sensor_id;sensor_type;location;lat;lon;timestamp;P1;durP1;ratioP1;P2;durP2;ratioP2
76447;SDS011;65284;51.040;13.722;2023-12-20T00:00:55;5.15;;;2.83;;
76447;SDS011;65284;51.040;13.722;2023-12-20T00:03:22;5.85;;;3.25;;
76447;SDS011;65284;51.040;13.722;2023-12-20T00:05:48;6.90;;;3.20;;
76447;SDS011;65284;51.040;13.722;2023-12-20T00:08:14;5.38;;;3.08;;
76447;SDS011;65284;51.040;13.722;2023-12-20T00:10:41;5.25;;;2.67;;
76447;SDS011;65284;51.040;13.722;2023-12-20T00:13:08;5.13;;;2.80;;
76447;SDS011;65284;51.040;13.722;2023-12-20T00:15:35;5.20;;;2.83;;
76447;SDS011;65284;51.040;13.722;2023-12-20T00:18:01;5.57;;;2.90;;
76447;SDS011;65284;51.040;13.722;2023-12-20T00:20:28;5.30;;;2.63;;
76447;SDS011;65284;51.040;13.722;2023-12-20T00:22:55;4.97;;;2.47;;
76447;SDS011;65284;51.040;13.722;2023-12-20T00:25:24;4.80;;;2.53;;
76447;SDS011;65284;51.040;13.722;2023-12-20T00:27:51;4.70;;;2.40;;
76447;SDS011;65284;51.040;13.722;2023-12-20T00:30:18;5.70;;;2.40;;
76447;SDS011;65284;51.040;13.722;2023-12-20T00:32:44;5.60;;;2.40;;
76447;SDS011;65284;51.040;13.722;2023-12-20T00:35:13;4.57;;;2.42;;
76447;SDS011;65284;51.040;13.722;2023-12-20T00:37:40;6.97;;;2.47;;
76447;SDS011;65284;51.040;13.722;2023-12-20T00:40:08;4.53;;;2.40;;
76447;SDS011;65284;51.040;13.722;2023-12-20T00:42:35;4.25;;;2.13;;
76447;SDS011;65284;51.040;13.722;2023-12-20T00:45:02;4.45;;;2.20;;
76447;SDS011;65284;51.040;13.722;2023-12-20T00:47:30;4.05;;;2.22;;
76447;SDS011;65284;51.040;13.722;2023-12-20T00:49:57;4.28;;;2.13;;
76447;SDS011;65284;51.040;13.722;2023-12-20T00:52:24;3.45;;;1.73;;
76447;SDS011;65284;51.040;13.722;2023-12-20T00:54:51;3.92;;;2.10;;
76447;SDS011;65284;51.040;13.722;2023-12-20T00:57:18;3.72;;;1.83;;
76447;SDS011;65284;51.040;13.722;2023-12-20T00:59:44;3.28;;;1.73;;
76447;SDS011;65284;51.040;13.722;2023-12-20T01:02:11;3.88;;;1.80;;
76447;SDS011;65284;51.040;13.722;2023-12-20T01:04:37;4.47;;;1.90;;
76447;SDS011;65284;51.040;13.722;2023-12-20T01:07:04;3.95;;;1.90;;
76447;SDS011;65284;51.040;13.722;2023-12-20T01:09:30;3.17;;;1.65;;
76447;SDS011;65284;51.040;13.722;2023-12-20T01:11:57;3.65;;;1.85;;
76447;SDS011;65284;51.040;13.722;2023-12-20T01:14:23;3.42;;;1.77;;
76447;SDS011;65284;51.040;13.722;2023-12-20T01:16:49;3.95;;;1.83;;
76447;SDS011;65284;51.040;13.722;2023-12-20T01:19:16;3.70;;;1.40;;
76447;SDS011;65284;51.040;13.722;2023-12-20T01:21:43;3.20;;;1.60;;
76447;SDS011;65284;51.040;13.722;2023-12-20T01:24:09;3.60;;;1.50;;
76447;SDS011;65284;51.040;13.722;2023-12-20T01:26:36;3.15;;;1.70;;
76447;SDS011;65284;51.040;13.722;2023-12-20T01:29:02;3.08;;;1.45;;
76447;SDS011;65284;51.040;13.722;2023-12-20T01:31:29;3.83;;;1.77;;
76447;SDS011;65284;51.040;13.722;2023-12-20T01:33:55;4.13;;;1.40;;
76447;SDS011;65284;51.040;13.722;2023-12-20T01:36:22;2.60;;;1.35;;
76447;SDS011;65284;51.040;13.722;2023-12-20T01:38:48;3.33;;;1.30;;
76447;SDS011;65284;51.040;13.722;2023-12-20T01:41:15;2.70;;;1.30;;
76447;SDS011;65284;51.040;13.722;2023-12-20T01:43:42;3.08;;;1.50;;
76447;SDS011;65284;51.040;13.722;2023-12-20T01:46:17;2.55;;;1.20;;
76447;SDS011;65284;51.040;13.722;2023-12-20T01:48:43;2.33;;;1.10;;
76447;SDS011;65284;51.040;13.722;2023-12-20T01:51:10;2.40;;;1.20;;
76447;SDS011;65284;51.040;13.722;2023-12-20T01:53:37;2.67;;;1.15;;
76447;SDS011;65284;51.040;13.722;2023-12-20T01:56:05;3.03;;;1.40;;
76447;SDS011;65284;51.040;13.722;2023-12-20T01:58:31;2.38;;;1.20;;
76447;SDS011;65284;51.040;13.722;2023-12-20T02:00:58;2.10;;;1.05;;
76447;SDS011;65284;51.040;13.722;2023-12-20T02:03:25;2.78;;;1.20;;
76447;SDS011;65284;51.040;13.722;2023-12-20T02:05:52;1.83;;;0.88;;
76447;SDS011;65284;51.040;13.722;2023-12-20T02:08:19;2.50;;;1.13;;
76447;SDS011;65284;51.040;13.722;2023-12-20T02:10:45;2.35;;;1.20;;
76447;SDS011;65284;51.040;13.722;2023-12-20T02:13:11;1.88;;;1.00;;
76447;SDS011;65284;51.040;13.722;2023-12-20T02:15:38;2.38;;;1.20;;
76447;SDS011;65284;51.040;13.722;2023-12-20T02:18:05;2.25;;;1.08;;
76447;SDS011;65284;51.040;13.722;2023-12-20T02:20:32;1.48;;;0.70;;
76447;SDS011;65284;51.040;13.722;2023-12-20T02:22:58;2.05;;;1.00;;
76447;SDS011;65284;51.040;13.722;2023-12-20T02:25:24;1.98;;;0.85;;
76447;SDS011;65284;51.040;13.722;2023-12-20T02:27:51;1.60;;;0.75;;
76447;SDS011;65284;51.040;13.722;2023-12-20T02:30:18;2.63;;;0.88;;
76447;SDS011;65284;51.040;13.722;2023-12-20T02:32:45;1.80;;;0.90;;
76447;SDS011;65284;51.040;13.722;2023-12-20T02:35:11;1.67;;;0.77;;
76447;SDS011;65284;51.040;13.722;2023-12-20T02:37:38;1.67;;;0.80;;
76447;SDS011;65284;51.040;13.722;2023-12-20T02:40:05;1.50;;;0.70;;
76447;SDS011;65284;51.040;13.722;2023-12-20T02:42:31;1.60;;;0.80;;
76447;SDS011;65284;51.040;13.722;2023-12-20T02:44:58;1.65;;;0.77;;
76447;SDS011;65284;51.040;13.722;2023-12-20T02:47:24;1.85;;;0.90;;
76447;SDS011;65284;51.040;13.722;2023-12-20T02:49:51;1.60;;;0.80;;
76447;SDS011;65284;51.040;13.722;2023-12-20T02:52:19;1.77;;;0.80;;
76447;SDS011;65284;51.040;13.722;2023-12-20T02:54:45;1.63;;;0.75;;
76447;SDS011;65284;51.040;13.722;2023-12-20T02:57:12;1.40;;;0.70;;
76447;SDS011;65284;51.040;13.722;2023-12-20T02:59:38;1.85;;;0.70;;
76447;SDS011;65284;51.040;13.722;2023-12-20T03:02:05;1.63;;;0.68;;
76447;SDS011;65284;51.040;13.722;2023-12-20T03:04:31;1.73;;;0.90;;
76447;SDS011;65284;51.040;13.722;2023-12-20T03:06:58;1.17;;;0.57;;
76447;SDS011;65284;51.040;13.722;2023-12-20T03:09:25;1.45;;;0.60;;
76447;SDS011;65284;51.040;13.722;2023-12-20T03:11:51;1.17;;;0.73;;
76447;SDS011;65284;51.040;13.722;2023-12-20T03:14:17;1.65;;;0.70;;
76447;SDS011;65284;51.040;13.722;2023-12-20T03:16:49;1.50;;;0.80;;
76447;SDS011;65284;51.040;13.722;2023-12-20T03:19:16;1.13;;;0.70;;
76447;SDS011;65284;51.040;13.722;2023-12-20T03:21:43;1.50;;;0.70;;
76447;SDS011;65284;51.040;13.722;2023-12-20T03:24:10;1.30;;;0.70;;
76447;SDS011;65284;51.040;13.722;2023-12-20T03:26:36;1.73;;;0.73;;
76447;SDS011;65284;51.040;13.722;2023-12-20T03:29:03;1.23;;;0.70;;
76447;SDS011;65284;51.040;13.722;2023-12-20T03:31:29;1.58;;;0.70;;
76447;SDS011;65284;51.040;13.722;2023-12-20T03:33:56;1.27;;;0.70;;
76447;SDS011;65284;51.040;13.722;2023-12-20T03:36:22;1.63;;;0.70;;
76447;SDS011;65284;51.040;13.722;2023-12-20T03:38:49;1.35;;;0.60;;
76447;SDS011;65284;51.040;13.722;2023-12-20T03:41:15;1.10;;;0.60;;
76447;SDS011;65284;51.040;13.722;2023-12-20T03:43:42;1.58;;;0.60;;
76447;SDS011;65284;51.040;13.722;2023-12-20T03:46:08;1.45;;;0.70;;
76447;SDS011;65284;51.040;13.722;2023-12-20T03:48:35;0.90;;;0.47;;
76447;SDS011;65284;51.040;13.722;2023-12-20T03:51:01;1.10;;;0.60;;
76447;SDS011;65284;51.040;13.722;2023-12-20T03:53:28;1.08;;;0.60;;
76447;SDS011;65284;51.040;13.722;2023-12-20T03:55:54;1.17;;;0.70;;
76447;SDS011;65284;51.040;13.722;2023-12-20T03:58:21;1.30;;;0.50;;
76447;SDS011;65284;51.040;13.722;2023-12-20T04:00:47;1.25;;;0.68;;
76447;SDS011;65284;51.040;13.722;2023-12-20T04:03:14;1.08;;;0.55;;
76447;SDS011;65284;51.040;13.722;2023-12-20T04:05:40;0.95;;;0.30;;
76447;SDS011;65284;51.040;13.722;2023-12-20T04:08:07;0.95;;;0.63;;
76447;SDS011;65284;51.040;13.722;2023-12-20T04:10:34;1.40;;;0.70;;
76447;SDS011;65284;51.040;13.722;2023-12-20T04:13:00;0.90;;;0.60;;
76447;SDS011;65284;51.040;13.722;2023-12-20T04:15:27;1.27;;;0.70;;
76447;SDS011;65284;51.040;13.722;2023-12-20T04:17:53;1.40;;;0.80;;
76447;SDS011;65284;51.040;13.722;2023-12-20T04:20:20;1.63;;;0.88;;
76447;SDS011;65284;51.040;13.722;2023-12-20T04:22:46;2.53;;;0.70;;
76447;SDS011;65284;51.040;13.722;2023-12-20T04:25:13;1.65;;;0.80;;
76447;SDS011;65284;51.040;13.722;2023-12-20T04:27:39;1.23;;;0.60;;
76447;SDS011;65284;51.040;13.722;2023-12-20T04:30:06;1.48;;;0.80;;
76447;SDS011;65284;51.040;13.722;2023-12-20T04:32:34;1.45;;;0.80;;
76447;SDS011;65284;51.040;13.722;2023-12-20T04:35:00;1.48;;;0.80;;
76447;SDS011;65284;51.040;13.722;2023-12-20T04:37:26;1.10;;;0.70;;
76447;SDS011;65284;51.040;13.722;2023-12-20T04:39:53;1.27;;;0.73;;
76447;SDS011;65284;51.040;13.722;2023-12-20T04:42:19;1.02;;;0.63;;
76447;SDS011;65284;51.040;13.722;2023-12-20T04:44:46;1.52;;;0.80;;
76447;SDS011;65284;51.040;13.722;2023-12-20T04:47:12;1.10;;;0.70;;
76447;SDS011;65284;51.040;13.722;2023-12-20T04:49:39;1.70;;;0.90;;
76447;SDS011;65284;51.040;13.722;2023-12-20T04:52:05;1.70;;;0.90;;
76447;SDS011;65284;51.040;13.722;2023-12-20T04:54:32;1.48;;;0.95;;
76447;SDS011;65284;51.040;13.722;2023-12-20T04:56:58;1.30;;;0.70;;
76447;SDS011;65284;51.040;13.722;2023-12-20T04:59:25;1.58;;;0.70;;
76447;SDS011;65284;51.040;13.722;2023-12-20T05:01:51;1.70;;;0.73;;
76447;SDS011;65284;51.040;13.722;2023-12-20T05:04:18;1.35;;;0.73;;
76447;SDS011;65284;51.040;13.722;2023-12-20T05:06:44;2.10;;;0.80;;
76447;SDS011;65284;51.040;13.722;2023-12-20T05:09:11;0.63;;;0.40;;
76447;SDS011;65284;51.040;13.722;2023-12-20T05:11:37;1.60;;;0.80;;
76447;SDS011;65284;51.040;13.722;2023-12-20T05:14:04;1.20;;;0.60;;
76447;SDS011;65284;51.040;13.722;2023-12-20T05:16:30;1.30;;;0.60;;
76447;SDS011;65284;51.040;13.722;2023-12-20T05:18:56;2.25;;;0.70;;
76447;SDS011;65284;51.040;13.722;2023-12-20T05:21:23;2.15;;;0.60;;
76447;SDS011;65284;51.040;13.722;2023-12-20T05:23:49;1.08;;;0.70;;
76447;SDS011;65284;51.040;13.722;2023-12-20T05:26:16;1.58;;;0.60;;
76447;SDS011;65284;51.040;13.722;2023-12-20T05:28:42;1.42;;;0.80;;
76447;SDS011;65284;51.040;13.722;2023-12-20T05:31:09;1.40;;;0.70;;
76447;SDS011;65284;51.040;13.722;2023-12-20T05:33:35;1.23;;;0.70;;
76447;SDS011;65284;51.040;13.722;2023-12-20T05:36:02;1.52;;;0.60;;
76447;SDS011;65284;51.040;13.722;2023-12-20T05:38:28;1.15;;;0.60;;
76447;SDS011;65284;51.040;13.722;2023-12-20T05:40:55;0.85;;;0.47;;
76447;SDS011;65284;51.040;13.722;2023-12-20T05:43:21;1.55;;;0.60;;
76447;SDS011;65284;51.040;13.722;2023-12-20T05:45:47;1.15;;;0.57;;
76447;SDS011;65284;51.040;13.722;2023-12-20T05:48:14;1.25;;;0.50;;
76447;SDS011;65284;51.040;13.722;2023-12-20T05:50:41;1.27;;;0.60;;
76447;SDS011;65284;51.040;13.722;2023-12-20T05:53:07;1.63;;;0.60;;
76447;SDS011;65284;51.040;13.722;2023-12-20T05:55:34;1.23;;;0.60;;
76447;SDS011;65284;51.040;13.722;2023-12-20T05:58:00;1.15;;;0.50;;
76447;SDS011;65284;51.040;13.722;2023-12-20T06:00:27;2.45;;;0.50;;
76447;SDS011;65284;51.040;13.722;2023-12-20T06:02:54;2.42;;;0.77;;
76447;SDS011;65284;51.040;13.722;2023-12-20T06:05:20;2.15;;;0.70;;
76447;SDS011;65284;51.040;13.722;2023-12-20T06:07:47;1.42;;;0.70;;
76447;SDS011;65284;51.040;13.722;2023-12-20T06:10:16;1.50;;;0.70;;
76447;SDS011;65284;51.040;13.722;2023-12-20T06:12:43;2.78;;;0.70;;
76447;SDS011;65284;51.040;13.722;2023-12-20T06:15:09;1.20;;;0.60;;
76447;SDS011;65284;51.040;13.722;2023-12-20T06:17:36;2.15;;;0.98;;
76447;SDS011;65284;51.040;13.722;2023-12-20T06:20:03;2.00;;;0.90;;
76447;SDS011;65284;51.040;13.722;2023-12-20T06:22:34;1.92;;;0.88;;
76447;SDS011;65284;51.040;13.722;2023-12-20T06:25:02;2.55;;;0.77;;
76447;SDS011;65284;51.040;13.722;2023-12-20T06:27:29;1.85;;;0.90;;
76447;SDS011;65284;51.040;13.722;2023-12-20T06:29:55;1.55;;;0.90;;
76447;SDS011;65284;51.040;13.722;2023-12-20T06:32:22;3.30;;;1.13;;
76447;SDS011;65284;51.040;13.722;2023-12-20T06:34:49;1.83;;;1.10;;
76447;SDS011;65284;51.040;13.722;2023-12-20T06:37:16;2.30;;;1.20;;
76447;SDS011;65284;51.040;13.722;2023-12-20T06:39:42;3.25;;;1.40;;
76447;SDS011;65284;51.040;13.722;2023-12-20T06:42:09;2.70;;;1.40;;
76447;SDS011;65284;51.040;13.722;2023-12-20T06:44:35;2.13;;;1.15;;
76447;SDS011;65284;51.040;13.722;2023-12-20T06:47:03;2.67;;;1.50;;
76447;SDS011;65284;51.040;13.722;2023-12-20T06:49:29;2.95;;;1.38;;
76447;SDS011;65284;51.040;13.722;2023-12-20T06:51:56;3.20;;;1.55;;
76447;SDS011;65284;51.040;13.722;2023-12-20T06:54:23;2.88;;;1.73;;
76447;SDS011;65284;51.040;13.722;2023-12-20T06:56:49;3.22;;;1.50;;
76447;SDS011;65284;51.040;13.722;2023-12-20T06:59:16;2.85;;;1.80;;
76447;SDS011;65284;51.040;13.722;2023-12-20T07:01:42;4.10;;;1.70;;
76447;SDS011;65284;51.040;13.722;2023-12-20T07:04:13;3.35;;;1.88;;
76447;SDS011;65284;51.040;13.722;2023-12-20T07:06:39;2.83;;;1.60;;
76447;SDS011;65284;51.040;13.722;2023-12-20T07:09:06;3.63;;;2.08;;
76447;SDS011;65284;51.040;13.722;2023-12-20T07:11:33;4.05;;;1.70;;
76447;SDS011;65284;51.040;13.722;2023-12-20T07:13:59;4.65;;;2.10;;
76447;SDS011;65284;51.040;13.722;2023-12-20T07:16:27;3.83;;;2.00;;
76447;SDS011;65284;51.040;13.722;2023-12-20T07:18:53;3.97;;;1.90;;
76447;SDS011;65284;51.040;13.722;2023-12-20T07:21:20;3.13;;;1.90;;
76447;SDS011;65284;51.040;13.722;2023-12-20T07:23:47;3.65;;;2.33;;
76447;SDS011;65284;51.040;13.722;2023-12-20T07:26:13;5.90;;;2.35;;
76447;SDS011;65284;51.040;13.722;2023-12-20T07:28:39;4.15;;;2.13;;
76447;SDS011;65284;51.040;13.722;2023-12-20T07:31:07;4.30;;;2.65;;
76447;SDS011;65284;51.040;13.722;2023-12-20T07:33:33;5.03;;;2.60;;
76447;SDS011;65284;51.040;13.722;2023-12-20T07:36:05;4.30;;;2.53;;
76447;SDS011;65284;51.040;13.722;2023-12-20T07:38:32;4.55;;;2.30;;
76447;SDS011;65284;51.040;13.722;2023-12-20T07:40:58;3.70;;;2.13;;
76447;SDS011;65284;51.040;13.722;2023-12-20T07:43:24;3.83;;;2.22;;
76447;SDS011;65284;51.040;13.722;2023-12-20T07:45:51;4.95;;;2.60;;
76447;SDS011;65284;51.040;13.722;2023-12-20T07:48:17;4.32;;;2.50;;
76447;SDS011;65284;51.040;13.722;2023-12-20T07:50:44;5.47;;;2.28;;
76447;SDS011;65284;51.040;13.722;2023-12-20T07:53:10;4.53;;;2.50;;
76447;SDS011;65284;51.040;13.722;2023-12-20T07:55:37;4.18;;;2.33;;
76447;SDS011;65284;51.040;13.722;2023-12-20T07:58:03;5.30;;;2.50;;
76447;SDS011;65284;51.040;13.722;2023-12-20T08:00:31;5.30;;;2.65;;
76447;SDS011;65284;51.040;13.722;2023-12-20T08:02:57;5.13;;;2.63;;
76447;SDS011;65284;51.040;13.722;2023-12-20T08:05:24;5.95;;;2.40;;
76447;SDS011;65284;51.040;13.722;2023-12-20T08:07:50;5.30;;;2.33;;
76447;SDS011;65284;51.040;13.722;2023-12-20T08:10:17;3.65;;;2.03;;
76447;SDS011;65284;51.040;13.722;2023-12-20T08:12:45;4.03;;;1.98;;
76447;SDS011;65284;51.040;13.722;2023-12-20T08:15:12;4.70;;;1.92;;
76447;SDS011;65284;51.040;13.722;2023-12-20T08:17:38;6.18;;;2.10;;
76447;SDS011;65284;51.040;13.722;2023-12-20T08:20:05;6.18;;;2.03;;
76447;SDS011;65284;51.040;13.722;2023-12-20T08:22:32;6.38;;;2.00;;
76447;SDS011;65284;51.040;13.722;2023-12-20T08:24:59;4.10;;;1.90;;
76447;SDS011;65284;51.040;13.722;2023-12-20T08:27:25;3.38;;;1.73;;
76447;SDS011;65284;51.040;13.722;2023-12-20T08:29:52;4.03;;;1.70;;
76447;SDS011;65284;51.040;13.722;2023-12-20T08:32:18;5.63;;;1.73;;
76447;SDS011;65284;51.040;13.722;2023-12-20T08:34:45;4.30;;;1.52;;
76447;SDS011;65284;51.040;13.722;2023-12-20T08:37:11;4.10;;;1.52;;
76447;SDS011;65284;51.040;13.722;2023-12-20T08:39:38;4.05;;;1.48;;
76447;SDS011;65284;51.040;13.722;2023-12-20T08:42:07;4.13;;;1.38;;
76447;SDS011;65284;51.040;13.722;2023-12-20T08:44:34;3.85;;;1.60;;
76447;SDS011;65284;51.040;13.722;2023-12-20T08:47:00;3.60;;;1.13;;
76447;SDS011;65284;51.040;13.722;2023-12-20T08:49:26;7.93;;;1.60;;
76447;SDS011;65284;51.040;13.722;2023-12-20T08:51:54;4.07;;;1.27;;
76447;SDS011;65284;51.040;13.722;2023-12-20T08:54:24;4.82;;;1.40;;
76447;SDS011;65284;51.040;13.722;2023-12-20T08:56:51;2.63;;;1.00;;
76447;SDS011;65284;51.040;13.722;2023-12-20T08:59:19;2.90;;;1.00;;
76447;SDS011;65284;51.040;13.722;2023-12-20T09:01:45;3.97;;;0.80;;
76447;SDS011;65284;51.040;13.722;2023-12-20T09:04:14;4.13;;;0.80;;
76447;SDS011;65284;51.040;13.722;2023-12-20T09:06:40;2.47;;;0.70;;
76447;SDS011;65284;51.040;13.722;2023-12-20T09:09:07;3.72;;;0.70;;
76447;SDS011;65284;51.040;13.722;2023-12-20T09:11:36;3.28;;;0.80;;
76447;SDS011;65284;51.040;13.722;2023-12-20T09:14:03;4.60;;;0.70;;
76447;SDS011;65284;51.040;13.722;2023-12-20T09:16:29;3.28;;;0.65;;
76447;SDS011;65284;51.040;13.722;2023-12-20T09:18:57;3.22;;;0.80;;
76447;SDS011;65284;51.040;13.722;2023-12-20T09:21:24;3.28;;;1.10;;
76447;SDS011;65284;51.040;13.722;2023-12-20T09:23:50;3.08;;;0.80;;
76447;SDS011;65284;51.040;13.722;2023-12-20T09:26:17;2.42;;;0.80;;
76447;SDS011;65284;51.040;13.722;2023-12-20T09:28:43;3.20;;;0.98;;
76447;SDS011;65284;51.040;13.722;2023-12-20T09:31:10;2.20;;;0.90;;
76447;SDS011;65284;51.040;13.722;2023-12-20T09:33:36;2.65;;;1.00;;
76447;SDS011;65284;51.040;13.722;2023-12-20T09:36:03;5.15;;;1.17;;
76447;SDS011;65284;51.040;13.722;2023-12-20T09:38:30;3.50;;;1.20;;
76447;SDS011;65284;51.040;13.722;2023-12-20T09:40:57;4.53;;;1.33;;
76447;SDS011;65284;51.040;13.722;2023-12-20T09:43:23;3.13;;;1.10;;
76447;SDS011;65284;51.040;13.722;2023-12-20T09:45:52;4.60;;;1.00;;
76447;SDS011;65284;51.040;13.722;2023-12-20T09:48:20;3.10;;;1.15;;
76447;SDS011;65284;51.040;13.722;2023-12-20T09:50:46;3.40;;;1.13;;
76447;SDS011;65284;51.040;13.722;2023-12-20T09:53:19;2.70;;;0.98;;
76447;SDS011;65284;51.040;13.722;2023-12-20T09:55:45;3.60;;;1.30;;
76447;SDS011;65284;51.040;13.722;2023-12-20T09:58:12;5.43;;;1.10;;
76447;SDS011;65284;51.040;13.722;2023-12-20T10:00:38;5.63;;;1.30;;
76447;SDS011;65284;51.040;13.722;2023-12-20T10:03:05;3.30;;;1.10;;
76447;SDS011;65284;51.040;13.722;2023-12-20T10:05:33;4.70;;;1.10;;
76447;SDS011;65284;51.040;13.722;2023-12-20T10:08:01;4.72;;;0.93;;
76447;SDS011;65284;51.040;13.722;2023-12-20T10:10:29;3.38;;;1.23;;
76447;SDS011;65284;51.040;13.722;2023-12-20T10:13:10;3.63;;;1.30;;
76447;SDS011;65284;51.040;13.722;2023-12-20T10:15:38;10.88;;;1.35;;
76447;SDS011;65284;51.040;13.722;2023-12-20T10:18:05;2.67;;;1.02;;
76447;SDS011;65284;51.040;13.722;2023-12-20T10:20:32;4.60;;;1.48;;
76447;SDS011;65284;51.040;13.722;2023-12-20T10:22:59;8.25;;;1.60;;
76447;SDS011;65284;51.040;13.722;2023-12-20T10:25:27;6.35;;;1.35;;
76447;SDS011;65284;51.040;13.722;2023-12-20T10:28:12;2.88;;;1.00;;
76447;SDS011;65284;51.040;13.722;2023-12-20T10:30:40;4.90;;;1.20;;
76447;SDS011;65284;51.040;13.722;2023-12-20T10:33:09;3.70;;;1.02;;
76447;SDS011;65284;51.040;13.722;2023-12-20T10:35:37;4.38;;;1.10;;
76447;SDS011;65284;51.040;13.722;2023-12-20T10:38:07;2.95;;;1.08;;
76447;SDS011;65284;51.040;13.722;2023-12-20T10:40:35;3.05;;;1.10;;
76447;SDS011;65284;51.040;13.722;2023-12-20T10:43:05;4.45;;;1.42;;
76447;SDS011;65284;51.040;13.722;2023-12-20T10:45:32;3.90;;;0.98;;
76447;SDS011;65284;51.040;13.722;2023-12-20T10:47:58;3.78;;;1.10;;
76447;SDS011;65284;51.040;13.722;2023-12-20T10:50:26;6.20;;;2.15;;
76447;SDS011;65284;51.040;13.722;2023-12-20T10:52:54;4.90;;;1.27;;
76447;SDS011;65284;51.040;13.722;2023-12-20T10:55:25;4.95;;;1.48;;
76447;SDS011;65284;51.040;13.722;2023-12-20T10:57:54;3.75;;;1.15;;
76447;SDS011;65284;51.040;13.722;2023-12-20T11:00:29;3.58;;;1.00;;
76447;SDS011;65284;51.040;13.722;2023-12-20T11:03:00;4.55;;;1.20;;
76447;SDS011;65284;51.040;13.722;2023-12-20T11:05:31;5.90;;;1.10;;
76447;SDS011;65284;51.040;13.722;2023-12-20T11:08:07;3.47;;;1.10;;
76447;SDS011;65284;51.040;13.722;2023-12-20T11:10:43;4.38;;;1.25;;
76447;SDS011;65284;51.040;13.722;2023-12-20T11:13:20;5.03;;;1.42;;
76447;SDS011;65284;51.040;13.722;2023-12-20T11:15:53;3.30;;;1.13;;
76447;SDS011;65284;51.040;13.722;2023-12-20T11:18:20;4.63;;;1.25;;
76447;SDS011;65284;51.040;13.722;2023-12-20T11:20:55;4.88;;;1.40;;
76447;SDS011;65284;51.040;13.722;2023-12-20T11:23:26;4.38;;;1.20;;
76447;SDS011;65284;51.040;13.722;2023-12-20T11:25:54;5.47;;;1.20;;
76447;SDS011;65284;51.040;13.722;2023-12-20T11:28:23;2.95;;;1.20;;
76447;SDS011;65284;51.040;13.722;2023-12-20T11:30:54;3.20;;;1.20;;
76447;SDS011;65284;51.040;13.722;2023-12-20T11:33:22;3.95;;;1.40;;
76447;SDS011;65284;51.040;13.722;2023-12-20T11:35:55;3.72;;;1.35;;
76447;SDS011;65284;51.040;13.722;2023-12-20T11:38:22;6.80;;;1.33;;
76447;SDS011;65284;51.040;13.722;2023-12-20T11:40:49;5.57;;;1.45;;
76447;SDS011;65284;51.040;13.722;2023-12-20T11:43:31;3.45;;;1.35;;
76447;SDS011;65284;51.040;13.722;2023-12-20T11:46:08;3.67;;;1.30;;
76447;SDS011;65284;51.040;13.722;2023-12-20T11:48:38;4.68;;;1.23;;
76447;SDS011;65284;51.040;13.722;2023-12-20T11:51:12;3.15;;;0.98;;
76447;SDS011;65284;51.040;13.722;2023-12-20T11:53:42;3.25;;;1.20;;
76447;SDS011;65284;51.040;13.722;2023-12-20T11:56:09;4.38;;;1.50;;
76447;SDS011;65284;51.040;13.722;2023-12-20T11:58:36;5.35;;;1.40;;
76447;SDS011;65284;51.040;13.722;2023-12-20T12:01:03;3.92;;;1.40;;
76447;SDS011;65284;51.040;13.722;2023-12-20T12:03:30;3.30;;;1.08;;
76447;SDS011;65284;51.040;13.722;2023-12-20T12:05:57;3.30;;;1.08;;
76447;SDS011;65284;51.040;13.722;2023-12-20T12:08:24;4.65;;;1.15;;
76447;SDS011;65284;51.040;13.722;2023-12-20T12:10:51;5.10;;;1.15;;
76447;SDS011;65284;51.040;13.722;2023-12-20T12:13:18;5.15;;;1.42;;
76447;SDS011;65284;51.040;13.722;2023-12-20T12:15:44;3.25;;;1.30;;
76447;SDS011;65284;51.040;13.722;2023-12-20T12:18:11;3.53;;;1.23;;
76447;SDS011;65284;51.040;13.722;2023-12-20T12:20:41;4.40;;;1.40;;
76447;SDS011;65284;51.040;13.722;2023-12-20T12:23:08;7.82;;;1.30;;
76447;SDS011;65284;51.040;13.722;2023-12-20T12:25:35;4.10;;;1.23;;
76447;SDS011;65284;51.040;13.722;2023-12-20T12:28:08;4.78;;;1.30;;
76447;SDS011;65284;51.040;13.722;2023-12-20T12:30:35;4.25;;;1.25;;
76447;SDS011;65284;51.040;13.722;2023-12-20T12:33:11;3.75;;;0.85;;
76447;SDS011;65284;51.040;13.722;2023-12-20T12:35:38;5.47;;;1.20;;
76447;SDS011;65284;51.040;13.722;2023-12-20T12:38:06;5.10;;;1.20;;
76447;SDS011;65284;51.040;13.722;2023-12-20T12:40:34;5.97;;;1.20;;
76447;SDS011;65284;51.040;13.722;2023-12-20T12:43:01;5.53;;;1.20;;
76447;SDS011;65284;51.040;13.722;2023-12-20T12:45:28;4.65;;;1.20;;
76447;SDS011;65284;51.040;13.722;2023-12-20T12:47:55;4.03;;;1.20;;
76447;SDS011;65284;51.040;13.722;2023-12-20T12:50:21;2.50;;;1.05;;
76447;SDS011;65284;51.040;13.722;2023-12-20T12:52:48;3.55;;;1.02;;
76447;SDS011;65284;51.040;13.722;2023-12-20T12:55:14;5.28;;;1.17;;
76447;SDS011;65284;51.040;13.722;2023-12-20T12:57:41;4.28;;;1.52;;
76447;SDS011;65284;51.040;13.722;2023-12-20T13:00:09;6.20;;;1.15;;
76447;SDS011;65284;51.040;13.722;2023-12-20T13:02:36;6.22;;;1.60;;
76447;SDS011;65284;51.040;13.722;2023-12-20T13:05:04;4.65;;;1.27;;
76447;SDS011;65284;51.040;13.722;2023-12-20T13:07:31;3.75;;;1.00;;
76447;SDS011;65284;51.040;13.722;2023-12-20T13:09:59;4.88;;;1.20;;
76447;SDS011;65284;51.040;13.722;2023-12-20T13:12:26;3.65;;;1.30;;
76447;SDS011;65284;51.040;13.722;2023-12-20T13:14:52;3.13;;;1.02;;
76447;SDS011;65284;51.040;13.722;2023-12-20T13:17:19;5.63;;;1.15;;
76447;SDS011;65284;51.040;13.722;2023-12-20T13:19:46;5.28;;;1.15;;
76447;SDS011;65284;51.040;13.722;2023-12-20T13:22:13;3.88;;;1.20;;
76447;SDS011;65284;51.040;13.722;2023-12-20T13:24:39;5.63;;;1.20;;
76447;SDS011;65284;51.040;13.722;2023-12-20T13:27:06;3.05;;;0.93;;
76447;SDS011;65284;51.040;13.722;2023-12-20T13:29:33;5.60;;;1.10;;
76447;SDS011;65284;51.040;13.722;2023-12-20T13:32:01;5.35;;;1.30;;
76447;SDS011;65284;51.040;13.722;2023-12-20T13:34:29;2.47;;;0.90;;
76447;SDS011;65284;51.040;13.722;2023-12-20T13:36:56;6.00;;;0.95;;
76447;SDS011;65284;51.040;13.722;2023-12-20T13:39:23;6.38;;;1.02;;
76447;SDS011;65284;51.040;13.722;2023-12-20T13:41:49;5.72;;;1.08;;
76447;SDS011;65284;51.040;13.722;2023-12-20T13:44:16;4.00;;;1.13;;
76447;SDS011;65284;51.040;13.722;2023-12-20T13:46:42;3.17;;;1.10;;
76447;SDS011;65284;51.040;13.722;2023-12-20T13:49:08;4.55;;;0.95;;
76447;SDS011;65284;51.040;13.722;2023-12-20T13:51:35;4.82;;;1.30;;
76447;SDS011;65284;51.040;13.722;2023-12-20T13:54:02;3.20;;;1.13;;
76447;SDS011;65284;51.040;13.722;2023-12-20T13:56:28;4.50;;;1.23;;
76447;SDS011;65284;51.040;13.722;2023-12-20T13:58:55;5.07;;;1.50;;
76447;SDS011;65284;51.040;13.722;2023-12-20T14:01:22;5.80;;;1.10;;
76447;SDS011;65284;51.040;13.722;2023-12-20T14:03:50;3.70;;;0.98;;
76447;SDS011;65284;51.040;13.722;2023-12-20T14:06:16;3.50;;;1.10;;
76447;SDS011;65284;51.040;13.722;2023-12-20T14:08:44;3.65;;;1.10;;
76447;SDS011;65284;51.040;13.722;2023-12-20T14:11:10;4.40;;;1.00;;
76447;SDS011;65284;51.040;13.722;2023-12-20T14:13:37;5.00;;;0.95;;
76447;SDS011;65284;51.040;13.722;2023-12-20T14:16:03;4.03;;;1.15;;
76447;SDS011;65284;51.040;13.722;2023-12-20T14:18:30;3.47;;;1.00;;
76447;SDS011;65284;51.040;13.722;2023-12-20T14:20:57;4.60;;;0.90;;
76447;SDS011;65284;51.040;13.722;2023-12-20T14:23:23;4.97;;;1.00;;
76447;SDS011;65284;51.040;13.722;2023-12-20T14:25:50;2.65;;;1.00;;
76447;SDS011;65284;51.040;13.722;2023-12-20T14:28:18;4.68;;;1.15;;
76447;SDS011;65284;51.040;13.722;2023-12-20T14:30:45;4.93;;;0.93;;
76447;SDS011;65284;51.040;13.722;2023-12-20T14:33:12;3.92;;;1.10;;